createdAt,value
2022-07-26T00:00:16.808Z,100764.94
2022-07-26T00:02:47.416Z,100765.16
2022-07-26T00:05:17.122Z,100777.59
2022-07-26T00:07:45.562Z,100781.34
2022-07-26T00:10:13.544Z,100788.69
2022-07-26T00:12:40.621Z,100788.94
2022-07-26T00:15:11.594Z,100791.72
2022-07-26T00:17:39.377Z,100802.44
2022-07-26T00:20:07.832Z,100803.47
2022-07-26T00:22:34.965Z,100799.72
2022-07-26T00:25:07.949Z,100801.38
2022-07-26T00:27:38.991Z,100802.19
2022-07-26T00:30:08.828Z,100811.44
2022-07-26T00:32:36.773Z,100808.06
2022-07-26T00:35:04.894Z,100805.97
2022-07-26T00:37:32.218Z,100821.94
2022-07-26T00:39:59.370Z,100821.47
2022-07-26T00:42:26.249Z,100816.47
2022-07-26T00:44:53.165Z,100814.72
2022-07-26T00:47:20.169Z,100801.09
2022-07-26T00:49:47.092Z,100808.06
2022-07-26T00:52:14.485Z,100814.53
2022-07-26T00:54:46.756Z,100814.28
2022-07-26T00:57:15.275Z,100818.06
2022-07-26T00:59:43.081Z,100811.78
2022-07-26T01:02:10.786Z,100810.91
2022-07-26T01:04:37.933Z,100817.00
2022-07-26T01:07:15.407Z,100809.25
2022-07-26T01:09:43.647Z,100807.59
2022-07-26T01:12:11.449Z,100810.25
2022-07-26T01:14:38.684Z,100808.44
2022-07-26T01:17:05.662Z,100810.91
2022-07-26T01:19:32.619Z,100809.63
2022-07-26T01:21:59.865Z,100819.69
2022-07-26T01:24:26.713Z,100815.06
2022-07-26T01:26:55.905Z,100820.16
2022-07-26T01:29:24.445Z,100814.69
2022-07-26T01:32:04.207Z,100820.53
2022-07-26T01:34:31.252Z,100810.91
2022-07-26T01:36:58.188Z,100816.78
2022-07-26T01:39:25.033Z,100820.34
2022-07-26T01:41:52.264Z,100819.69
2022-07-26T01:44:19.145Z,100820.34
2022-07-26T01:46:45.962Z,100823.25
2022-07-26T01:49:12.806Z,100826.19
2022-07-26T01:51:39.658Z,100820.91
2022-07-26T01:54:07.203Z,100826.78
2022-07-26T01:56:34.255Z,100829.50
2022-07-26T01:59:01.513Z,100828.72
2022-07-26T02:01:39.638Z,100826.00
2022-07-26T02:04:29.046Z,100833.53
2022-07-26T02:06:56.313Z,100837.50
2022-07-26T02:09:23.172Z,100840.69
2022-07-26T02:11:52.856Z,100839.25
2022-07-26T02:14:25.758Z,100836.72
2022-07-26T02:17:00.171Z,100838.22
2022-07-26T02:19:31.388Z,100838.53
2022-07-26T02:21:59.953Z,100840.03
2022-07-26T02:24:29.233Z,100845.88
2022-07-26T02:27:01.198Z,100843.16
2022-07-26T02:29:28.946Z,100838.09
2022-07-26T02:31:57.074Z,100846.28
2022-07-26T02:34:24.691Z,100849.00
2022-07-26T02:36:52.126Z,100854.88
2022-07-26T02:39:19.657Z,100854.88
2022-07-26T02:41:46.591Z,100850.16
2022-07-26T02:44:13.515Z,100852.66
2022-07-26T02:46:40.774Z,100852.25
2022-07-26T02:49:07.718Z,100855.56
2022-07-26T02:51:34.658Z,100851.06
2022-07-26T02:54:01.535Z,100860.06
2022-07-26T02:56:28.390Z,100863.63
2022-07-26T02:58:55.506Z,100856.88
2022-07-26T03:01:22.445Z,100858.59
2022-07-26T03:03:51.129Z,100867.78
2022-07-26T03:06:19.741Z,100866.78
2022-07-26T03:08:48.578Z,100866.34
2022-07-26T03:11:15.732Z,100873.72
2022-07-26T03:13:42.585Z,100876.75
2022-07-26T03:16:09.544Z,100885.03
2022-07-26T03:18:36.577Z,100880.03
2022-07-26T03:21:04.177Z,100885.91
2022-07-26T03:23:33.729Z,100884.59
2022-07-26T03:26:02.209Z,100878.69
2022-07-26T03:28:33.655Z,100890.22
2022-07-26T03:31:00.767Z,100892.69
2022-07-26T03:33:28.104Z,100895.78
2022-07-26T03:35:54.964Z,100892.81
2022-07-26T03:38:21.995Z,100890.72
2022-07-26T03:40:49.234Z,100898.44
2022-07-26T03:43:17.405Z,100897.97
2022-07-26T03:45:47.033Z,100899.38
2022-07-26T03:48:13.925Z,100904.19
2022-07-26T03:50:41.555Z,100897.31
2022-07-26T03:53:08.534Z,100906.50
2022-07-26T03:55:53.859Z,100901.72
2022-07-26T03:58:20.777Z,100898.91
2022-07-26T04:00:47.882Z,100909.34
2022-07-26T04:03:14.716Z,100906.25
2022-07-26T04:05:48.562Z,100913.56
2022-07-26T04:08:16.537Z,100918.84
2022-07-26T04:10:51.494Z,100911.06
2022-07-26T04:13:20.025Z,100906.91
2022-07-26T04:15:47.811Z,100901.81
2022-07-26T04:18:14.645Z,100903.72
2022-07-26T04:20:42.833Z,100903.25
2022-07-26T04:23:11.275Z,100905.13
2022-07-26T04:25:40.901Z,100905.59
2022-07-26T04:28:09.955Z,100908.88
2022-07-26T04:30:37.130Z,100916.03
2022-07-26T04:33:04.862Z,100906.34
2022-07-26T04:35:33.311Z,100905.97
2022-07-26T04:38:00.330Z,100904.38
2022-07-26T04:40:29.254Z,100910.75
2022-07-26T04:42:56.314Z,100914.31
2022-07-26T04:45:23.521Z,100922.31
2022-07-26T04:47:51.181Z,100924.00
2022-07-26T04:50:21.764Z,100929.84
2022-07-26T04:52:50.741Z,100926.16
2022-07-26T04:55:18.937Z,100925.03
2022-07-26T04:57:47.320Z,100929.19
2022-07-26T05:00:21.831Z,100923.34
2022-07-26T05:02:53.278Z,100932.16
2022-07-26T05:05:20.949Z,100936.03
2022-07-26T05:07:52.742Z,100933.78
2022-07-26T05:10:21.946Z,100933.97
2022-07-26T05:12:49.726Z,100935.28
2022-07-26T05:15:16.685Z,100953.91
2022-07-26T05:17:44.593Z,100954.19
2022-07-26T05:20:16.056Z,100947.41
2022-07-26T05:22:43.301Z,100951.72
2022-07-26T05:25:11.026Z,100953.25
2022-07-26T05:27:39.184Z,100957.81
2022-07-26T05:30:07.100Z,100953.78
2022-07-26T05:32:34.232Z,100958.22
2022-07-26T05:35:01.081Z,100966.59
2022-07-26T05:37:27.885Z,100968.94
2022-07-26T05:39:55.247Z,100976.47
2022-07-26T05:42:22.170Z,100969.59
2022-07-26T05:44:48.972Z,100977.31
2022-07-26T05:47:16.470Z,100985.78
2022-07-26T05:49:43.640Z,100984.44
2022-07-26T05:52:10.531Z,100986.13
2022-07-26T05:54:37.465Z,100987.91
2022-07-26T05:57:04.828Z,100987.91
2022-07-26T05:59:32.365Z,100990.94
2022-07-26T06:01:59.641Z,100990.28
2022-07-26T06:04:27.756Z,100995.28
2022-07-26T06:06:55.388Z,100995.34
2022-07-26T06:09:25.456Z,100997.22
2022-07-26T06:11:52.934Z,101001.44
2022-07-26T06:14:20.706Z,101006.81
2022-07-26T06:16:48.210Z,101018.94
2022-07-26T06:19:15.330Z,101009.34
2022-07-26T06:21:46.232Z,101012.28
2022-07-26T06:24:13.623Z,101014.34
2022-07-26T06:26:40.831Z,101008.97
2022-07-26T06:29:07.978Z,101016.50
2022-07-26T06:31:35.538Z,101012.75
2022-07-26T06:34:02.477Z,101020.63
2022-07-26T06:36:31.121Z,101019.88
2022-07-26T06:38:58.690Z,101024.38
2022-07-26T06:41:26.121Z,101029.81
2022-07-26T06:43:53.161Z,101026.91
2022-07-26T06:46:21.440Z,101034.34
2022-07-26T06:48:52.846Z,101032.09
2022-07-26T06:51:20.038Z,101034.16
2022-07-26T06:53:46.983Z,101037.34
2022-07-26T06:56:15.441Z,101033.25
2022-07-26T06:58:43.384Z,101026.09
2022-07-26T07:01:10.558Z,101035.03
2022-07-26T07:03:37.634Z,101041.41
2022-07-26T07:06:05.188Z,101039.63
2022-07-26T07:08:32.251Z,101034.00
2022-07-26T07:10:59.367Z,101033.72
2022-07-26T07:13:28.669Z,101038.34
2022-07-26T07:15:55.534Z,101033.03
2022-07-26T07:18:23.045Z,101041.75
2022-07-26T07:20:49.906Z,101039.16
2022-07-26T07:23:16.832Z,101040.59
2022-07-26T07:25:44.813Z,101042.44
2022-07-26T07:28:12.015Z,101044.06
2022-07-26T07:30:38.917Z,101046.06
2022-07-26T07:33:07.443Z,101053.38
2022-07-26T07:35:34.486Z,101051.47
2022-07-26T07:38:03.024Z,101047.50
2022-07-26T07:40:30.679Z,101051.22
2022-07-26T07:42:58.671Z,101057.03
2022-07-26T07:45:25.749Z,101055.31
2022-07-26T07:47:53.027Z,101055.94
2022-07-26T07:50:19.958Z,101059.19
2022-07-26T07:52:47.635Z,101063.91
2022-07-26T07:55:41.482Z,101065.84
2022-07-26T07:58:02.238Z,101066.53
2022-07-26T08:00:29.217Z,101069.59
2022-07-26T08:02:56.211Z,101060.06
2022-07-26T08:05:23.237Z,101064.63
2022-07-26T08:07:50.287Z,101067.66
2022-07-26T08:10:19.855Z,101060.09
2022-07-26T08:12:47.135Z,101061.63
2022-07-26T08:15:19.447Z,101062.13
2022-07-26T08:17:53.738Z,101066.47
2022-07-26T08:20:23.752Z,101063.75
2022-07-26T08:22:52.928Z,101069.44
2022-07-26T08:25:20.612Z,101061.88
2022-07-26T08:28:00.476Z,101062.75
2022-07-26T08:30:30.298Z,101078.97
2022-07-26T08:32:57.385Z,101074.91
2022-07-26T08:35:24.554Z,101077.69
2022-07-26T08:37:51.679Z,101076.84
2022-07-26T08:40:18.603Z,101084.19
2022-07-26T08:42:54.100Z,101094.31
2022-07-26T08:45:29.567Z,101083.53
2022-07-26T08:48:18.318Z,101088.19
2022-07-26T08:50:45.910Z,101090.75
2022-07-26T08:53:13.328Z,101092.47
2022-07-26T08:58:27.747Z,101100.44
2022-07-26T09:01:13.076Z,101089.53
2022-07-26T09:03:41.167Z,101092.78
2022-07-26T09:06:28.047Z,101092.66
2022-07-26T09:09:11.661Z,101092.22
2022-07-26T09:11:38.721Z,101087.56
2022-07-26T09:14:06.855Z,101097.28
2022-07-26T09:16:39.065Z,101097.69
2022-07-26T09:19:22.993Z,101099.16
2022-07-26T09:21:51.553Z,101104.88
2022-07-26T09:24:43.309Z,101105.94
2022-07-26T09:27:18.741Z,101103.41
2022-07-26T09:29:49.965Z,101111.66
2022-07-26T09:32:27.311Z,101117.50
2022-07-26T09:35:44.238Z,101121.69
2022-07-26T09:37:59.189Z,101131.16
2022-07-26T09:40:35.196Z,101126.66
2022-07-26T09:43:07.434Z,101130.19
2022-07-26T09:45:37.326Z,101138.78
2022-07-26T09:48:04.871Z,101139.81
2022-07-26T09:50:33.885Z,101125.25
2022-07-26T09:53:12.749Z,101132.81
2022-07-26T09:55:45.646Z,101130.50
2022-07-26T09:58:14.692Z,101142.09
2022-07-26T10:00:42.856Z,101137.06
2022-07-26T10:03:09.760Z,101134.59
2022-07-26T10:05:37.698Z,101128.53
2022-07-26T10:08:06.025Z,101130.66
2022-07-26T10:10:47.113Z,101129.25
2022-07-26T10:13:15.436Z,101129.53
2022-07-26T10:15:48.791Z,101126.00
2022-07-26T10:18:38.074Z,101121.56
2022-07-26T10:21:40.865Z,101119.22
2022-07-26T10:24:26.832Z,101125.53
2022-07-26T10:26:53.717Z,101125.72
2022-07-26T10:29:26.840Z,101126.31
2022-07-26T10:31:56.746Z,101119.97
2022-07-26T10:34:39.514Z,101117.38
2022-07-26T10:37:10.457Z,101117.66
2022-07-26T10:39:39.208Z,101117.63
2022-07-26T10:42:11.255Z,101114.72
2022-07-26T10:44:42.171Z,101112.31
2022-07-26T10:47:08.988Z,101108.31
2022-07-26T10:49:54.649Z,101106.66
2022-07-26T10:52:32.554Z,101111.59
2022-07-26T10:54:59.322Z,101116.13
2022-07-26T10:57:31.734Z,101112.91
2022-07-26T11:00:01.339Z,101121.88
2022-07-26T11:02:35.985Z,101127.09
2022-07-26T11:05:14.006Z,101123.31
2022-07-26T11:08:05.170Z,101118.31
2022-07-26T11:10:47.013Z,101115.97
2022-07-26T11:13:24.204Z,101106.03
2022-07-26T11:16:06.693Z,101115.41
2022-07-26T11:18:39.132Z,101121.31
2022-07-26T11:21:12.171Z,101112.81
2022-07-26T11:23:51.615Z,101119.22
2022-07-26T11:26:21.796Z,101123.59
2022-07-26T11:28:56.269Z,101124.00
2022-07-26T11:31:55.521Z,101127.41
2022-07-26T11:34:30.226Z,101136.09
2022-07-26T11:36:59.417Z,101130.16
2022-07-26T11:39:32.920Z,101135.22
2022-07-26T11:42:07.042Z,101139.13
2022-07-26T11:44:34.464Z,101143.97
2022-07-26T11:47:12.723Z,101135.97
2022-07-26T11:52:31.658Z,101133.47
2022-07-26T11:54:58.958Z,101136.88
2022-07-26T11:57:32.850Z,101137.91
2022-07-26T12:00:01.137Z,101130.28
2022-07-26T12:02:30.768Z,101129.25
2022-07-26T12:05:22.617Z,101133.25
2022-07-26T12:08:05.358Z,101127.72
2022-07-26T12:10:32.688Z,101134.56
2022-07-26T12:13:15.234Z,101128.16
2022-07-26T12:15:50.863Z,101133.31
2022-07-26T12:18:29.886Z,101135.78
2022-07-26T12:21:07.845Z,101137.81
2022-07-26T12:23:48.647Z,101139.22
2022-07-26T12:26:25.284Z,101131.19
2022-07-26T12:28:52.749Z,101132.28
2022-07-26T12:31:31.475Z,101130.81
2022-07-26T12:33:59.621Z,101128.56
2022-07-26T12:36:29.483Z,101128.69
2022-07-26T12:39:00.917Z,101130.88
2022-07-26T12:41:40.530Z,101130.59
2022-07-26T12:44:12.085Z,101133.16
2022-07-26T12:46:39.785Z,101131.38
2022-07-26T12:49:06.859Z,101133.31
2022-07-26T12:51:34.324Z,101132.91
2022-07-26T12:54:01.222Z,101122.69
2022-07-26T12:56:28.154Z,101127.31
2022-07-26T12:59:01.218Z,101124.34
2022-07-26T13:01:30.671Z,101125.88
2022-07-26T13:03:58.000Z,101122.47
2022-07-26T13:06:25.051Z,101122.19
2022-07-26T13:08:51.880Z,101118.81
2022-07-26T13:11:18.747Z,101117.28
2022-07-26T13:13:45.822Z,101113.16
2022-07-26T13:16:12.717Z,101114.09
2022-07-26T13:18:39.961Z,101110.69
2022-07-26T13:21:07.252Z,101118.97
2022-07-26T13:23:35.702Z,101119.97
2022-07-26T13:26:04.187Z,101120.34
2022-07-26T13:28:31.486Z,101124.41
2022-07-26T13:30:58.959Z,101116.84
2022-07-26T13:33:25.898Z,101114.47
2022-07-26T13:35:53.063Z,101119.22
2022-07-26T13:38:20.432Z,101120.03
2022-07-26T13:40:47.574Z,101115.91
2022-07-26T13:43:14.968Z,101119.81
2022-07-26T13:45:42.146Z,101126.66
2022-07-26T13:48:09.315Z,101125.56
2022-07-26T13:50:36.216Z,101114.53
2022-07-26T13:53:04.665Z,101121.34
2022-07-26T13:55:31.718Z,101124.34
2022-07-26T13:57:58.697Z,101130.44
2022-07-26T14:00:27.460Z,101127.78
2022-07-26T14:02:56.208Z,101119.72
2022-07-26T14:05:24.396Z,101128.81
2022-07-26T14:07:51.509Z,101125.34
2022-07-26T14:10:19.762Z,101136.59
2022-07-26T14:12:47.955Z,101127.94
2022-07-26T14:15:21.728Z,101131.63
2022-07-26T14:17:50.494Z,101129.13
2022-07-26T14:20:17.525Z,101136.50
2022-07-26T14:22:45.279Z,101132.88
2022-07-26T14:25:12.601Z,101138.03
2022-07-26T14:27:39.743Z,101140.03
2022-07-26T14:30:10.448Z,101137.00
2022-07-26T14:32:41.783Z,101134.44
2022-07-26T14:35:10.669Z,101131.41
2022-07-26T14:37:42.177Z,101141.50
2022-07-26T14:40:15.875Z,101147.38
2022-07-26T14:42:43.189Z,101139.41
2022-07-26T14:45:11.002Z,101139.69
2022-07-26T14:47:38.172Z,101137.47
2022-07-26T14:50:07.860Z,101120.16
2022-07-26T14:52:41.284Z,101138.03
2022-07-26T14:55:09.059Z,101137.44
2022-07-26T14:57:38.168Z,101135.94
2022-07-26T15:00:10.591Z,101131.28
2022-07-26T15:02:56.355Z,101130.75
2022-07-26T15:05:25.232Z,101129.81
2022-07-26T15:07:52.041Z,101137.97
2022-07-26T15:10:29.298Z,101130.53
2022-07-26T15:13:03.974Z,101134.66
2022-07-26T15:15:31.101Z,101138.84
2022-07-26T15:17:58.634Z,101135.03
2022-07-26T15:20:25.662Z,101138.84
2022-07-26T15:22:56.570Z,101129.97
2022-07-26T15:25:24.453Z,101133.72
2022-07-26T15:27:52.080Z,101123.44
2022-07-26T15:30:19.813Z,101122.34
2022-07-26T15:32:46.964Z,101137.19
2022-07-26T15:35:15.051Z,101127.63
2022-07-26T15:37:43.924Z,101126.47
2022-07-26T15:40:12.684Z,101124.34
2022-07-26T15:42:45.707Z,101128.94
2022-07-26T15:45:13.773Z,101134.50
2022-07-26T15:48:05.717Z,101126.56
2022-07-26T15:50:28.785Z,101120.22
2022-07-26T15:52:55.624Z,101115.69
2022-07-26T15:55:22.494Z,101114.44
2022-07-26T15:57:49.363Z,101113.31
2022-07-26T16:00:17.440Z,101114.72
2022-07-26T16:02:44.726Z,101116.69
2022-07-26T16:05:11.906Z,101109.66
2022-07-26T16:07:41.760Z,101109.72
2022-07-26T16:10:12.365Z,101105.50
2022-07-26T16:12:41.370Z,101119.59
2022-07-26T16:15:11.039Z,101109.59
2022-07-26T16:17:39.337Z,101105.06
2022-07-26T16:20:07.381Z,101101.78
2022-07-26T16:22:35.429Z,101098.56
2022-07-26T16:25:02.318Z,101104.06
2022-07-26T16:27:29.113Z,101101.00
2022-07-26T16:29:55.997Z,101103.72
2022-07-26T16:32:22.910Z,101107.13
2022-07-26T16:34:50.140Z,101104.56
2022-07-26T16:37:17.039Z,101094.19
2022-07-26T16:39:43.903Z,101098.22
2022-07-26T16:42:10.679Z,101101.19
2022-07-26T16:44:38.143Z,101098.72
2022-07-26T16:47:05.184Z,101102.25
2022-07-26T16:49:32.290Z,101093.97
2022-07-26T16:51:59.283Z,101102.84
2022-07-26T16:54:26.553Z,101101.63
2022-07-26T16:56:53.489Z,101111.97
2022-07-26T16:59:20.405Z,101095.69
2022-07-26T17:01:47.576Z,101097.94
2022-07-26T17:04:14.490Z,101099.31
2022-07-26T17:06:41.288Z,101098.69
2022-07-26T17:09:15.942Z,101096.56
2022-07-26T17:11:43.154Z,101098.09
2022-07-26T17:14:10.968Z,101099.13
2022-07-26T17:16:37.981Z,101102.31
2022-07-26T17:19:04.838Z,101096.94
2022-07-26T17:21:32.068Z,101098.03
2022-07-26T17:24:01.602Z,101099.53
2022-07-26T17:26:32.479Z,101096.66
2022-07-26T17:29:03.318Z,101099.88
2022-07-26T17:31:30.443Z,101105.75
2022-07-26T17:33:57.281Z,101101.13
2022-07-26T17:36:30.304Z,101097.16
2022-07-26T17:38:58.680Z,101099.28
2022-07-26T17:41:32.667Z,101103.09
2022-07-26T17:44:03.271Z,101095.88
2022-07-26T17:46:32.849Z,101092.31
2022-07-26T17:49:00.625Z,101102.72
2022-07-26T17:51:27.604Z,101104.66
2022-07-26T17:53:54.660Z,101099.00
2022-07-26T17:56:21.517Z,101095.16
2022-07-26T17:58:48.329Z,101108.09
2022-07-26T18:01:15.702Z,101104.75
2022-07-26T18:03:42.676Z,101095.25
2022-07-26T18:06:09.947Z,101105.41
2022-07-26T18:08:37.000Z,101101.63
2022-07-26T18:11:05.255Z,101103.09
2022-07-26T18:13:32.159Z,101094.28
2022-07-26T18:16:04.127Z,101099.94
2022-07-26T18:18:32.793Z,101094.50
2022-07-26T18:21:00.035Z,101099.38
2022-07-26T18:23:26.882Z,101104.69
2022-07-26T18:25:54.155Z,101095.66
2022-07-26T18:28:21.043Z,101100.75
2022-07-26T18:30:47.904Z,101102.47
2022-07-26T18:33:14.821Z,101092.13
2022-07-26T18:35:42.001Z,101097.59
2022-07-26T18:38:09.267Z,101102.25
2022-07-26T18:40:36.309Z,101103.53
2022-07-26T18:43:03.681Z,101103.13
2022-07-26T18:45:30.672Z,101104.00
2022-07-26T18:47:57.705Z,101095.59
2022-07-26T18:50:26.922Z,101099.16
2022-07-26T18:52:58.173Z,101101.72
2022-07-26T18:55:25.301Z,101102.38
2022-07-26T18:57:52.204Z,101100.88
2022-07-26T19:00:21.319Z,101105.53
2022-07-26T19:02:48.263Z,101104.91
2022-07-26T19:05:16.839Z,101107.84
2022-07-26T19:07:44.851Z,101109.53
2022-07-26T19:10:13.181Z,101111.63
2022-07-26T19:12:40.508Z,101104.63
2022-07-26T19:15:08.560Z,101112.00
2022-07-26T19:17:36.180Z,101114.97
2022-07-26T19:20:05.368Z,101120.66
2022-07-26T19:22:32.283Z,101121.06
2022-07-26T19:24:59.231Z,101117.03
2022-07-26T19:27:27.991Z,101125.66
2022-07-26T19:29:57.129Z,101129.25
2022-07-26T19:32:31.710Z,101126.25
2022-07-26T19:35:00.917Z,101130.88
2022-07-26T19:37:27.751Z,101141.00
2022-07-26T19:39:56.180Z,101133.56
2022-07-26T19:42:23.031Z,101149.75
2022-07-26T19:44:51.106Z,101147.00
2022-07-26T19:47:18.014Z,101148.84
2022-07-26T19:49:44.871Z,101155.34
2022-07-26T19:52:12.132Z,101158.84
2022-07-26T19:54:39.688Z,101168.91
2022-07-26T19:57:07.717Z,101166.13
2022-07-26T19:59:34.723Z,101166.44
2022-07-26T20:02:02.493Z,101170.03
2022-07-26T20:04:29.764Z,101173.75
2022-07-26T20:06:56.669Z,101168.19
2022-07-26T20:09:23.969Z,101177.78
2022-07-26T20:11:51.152Z,101176.03
2022-07-26T20:14:20.739Z,101183.09
2022-07-26T20:16:52.950Z,101182.19
2022-07-26T20:19:24.548Z,101182.13
2022-07-26T20:21:51.556Z,101181.59
2022-07-26T20:24:19.360Z,101193.31
2022-07-26T20:26:46.308Z,101196.13
2022-07-26T20:29:13.484Z,101199.25
2022-07-26T20:31:40.882Z,101200.78
2022-07-26T20:34:07.827Z,101201.16
2022-07-26T20:36:34.748Z,101205.50
2022-07-26T20:39:02.618Z,101211.28
2022-07-26T20:41:34.021Z,101196.97
2022-07-26T20:44:01.084Z,101206.56
2022-07-26T20:46:28.288Z,101207.31
2022-07-26T20:48:55.376Z,101206.56
2022-07-26T20:51:22.492Z,101216.00
2022-07-26T20:53:49.945Z,101216.75
2022-07-26T20:56:16.767Z,101215.44
2022-07-26T20:58:43.576Z,101221.25
2022-07-26T21:01:12.518Z,101229.16
2022-07-26T21:03:39.486Z,101231.63
2022-07-26T21:06:06.446Z,101230.66
2022-07-26T21:08:33.337Z,101238.38
2022-07-26T21:11:00.692Z,101240.63
2022-07-26T21:13:27.666Z,101233.19
2022-07-26T21:15:54.646Z,101241.72
2022-07-26T21:18:21.915Z,101235.28
2022-07-26T21:20:49.095Z,101241.97
2022-07-26T21:23:18.373Z,101239.31
2022-07-26T21:25:45.472Z,101245.97
2022-07-26T21:28:12.785Z,101243.31
2022-07-26T21:30:39.641Z,101257.97
2022-07-26T21:33:06.607Z,101248.84
2022-07-26T21:35:33.564Z,101253.44
2022-07-26T21:38:00.410Z,101261.31
2022-07-26T21:40:27.473Z,101265.81
2022-07-26T21:42:54.317Z,101258.81
2022-07-26T21:45:21.201Z,101258.53
2022-07-26T21:47:48.196Z,101264.00
2022-07-26T21:50:15.020Z,101253.84
2022-07-26T21:52:41.894Z,101261.69
2022-07-26T21:55:09.269Z,101268.03
2022-07-26T21:57:36.136Z,101262.31
2022-07-26T22:00:06.277Z,101262.66
2022-07-26T22:02:33.170Z,101264.56
2022-07-26T22:05:01.294Z,101253.31
2022-07-26T22:07:28.138Z,101264.06
2022-07-26T22:09:55.043Z,101270.22
2022-07-26T22:12:21.867Z,101260.88
2022-07-26T22:14:48.669Z,101275.22
2022-07-26T22:17:15.676Z,101273.19
2022-07-26T22:19:42.487Z,101270.09
2022-07-26T22:22:09.336Z,101273.72
2022-07-26T22:24:36.150Z,101271.53
2022-07-26T22:27:02.983Z,101271.53
2022-07-26T22:29:38.827Z,101265.06
2022-07-26T22:32:07.200Z,101272.56
2022-07-26T22:34:34.162Z,101272.06
2022-07-26T22:37:01.137Z,101274.44
2022-07-26T22:39:27.957Z,101277.00
2022-07-26T22:42:14.335Z,101272.59
2022-07-26T22:44:41.674Z,101277.69
2022-07-26T22:47:08.516Z,101281.78
2022-07-26T22:49:35.532Z,101283.47
2022-07-26T22:52:02.416Z,101278.19
2022-07-26T22:54:29.290Z,101278.03
2022-07-26T22:56:56.205Z,101283.84
2022-07-26T22:59:25.524Z,101290.31
2022-07-26T23:01:52.389Z,101275.34
2022-07-26T23:04:19.317Z,101283.69
2022-07-26T23:06:46.543Z,101286.56
2022-07-26T23:09:14.497Z,101288.41
2022-07-26T23:11:41.751Z,101282.28
2022-07-26T23:14:08.579Z,101281.47
2022-07-26T23:16:35.577Z,101282.78
2022-07-26T23:19:02.799Z,101272.44
2022-07-26T23:21:29.813Z,101278.41
2022-07-26T23:23:57.300Z,101270.91
2022-07-26T23:26:24.178Z,101277.53
2022-07-26T23:28:51.754Z,101275.84
2022-07-26T23:31:18.968Z,101273.75
2022-07-26T23:33:52.366Z,101273.75
2022-07-26T23:36:28.407Z,101268.84
2022-07-26T23:38:58.360Z,101276.47
2022-07-26T23:41:26.699Z,101278.00
2022-07-26T23:43:54.515Z,101277.84
2022-07-26T23:46:22.061Z,101278.00
2022-07-26T23:48:49.279Z,101272.47
2022-07-26T23:51:16.686Z,101272.16
2022-07-26T23:53:43.801Z,101270.06
2022-07-26T23:56:10.647Z,101268.75
2022-07-26T23:58:37.852Z,101266.19
